sensor_id;sensor_type;location;lat;lon;timestamp;temperature;humidity
55634;DHT22;41504;53.162;6.788;2024-03-08T00:02:24;3.30;99.90
55634;DHT22;41504;53.162;6.788;2024-03-08T00:04:50;3.30;99.90
55634;DHT22;41504;53.162;6.788;2024-03-08T00:07:16;3.30;99.90
55634;DHT22;41504;53.162;6.788;2024-03-08T00:09:41;3.30;99.90
55634;DHT22;41504;53.162;6.788;2024-03-08T00:12:07;3.30;99.90
55634;DHT22;41504;53.162;6.788;2024-03-08T00:14:34;3.30;99.90
55634;DHT22;41504;53.162;6.788;2024-03-08T00:17:00;3.20;99.90
55634;DHT22;41504;53.162;6.788;2024-03-08T00:19:26;3.30;99.90
55634;DHT22;41504;53.162;6.788;2024-03-08T00:21:52;3.20;99.90
55634;DHT22;41504;53.162;6.788;2024-03-08T00:24:18;3.20;99.90
55634;DHT22;41504;53.162;6.788;2024-03-08T00:26:43;3.20;99.90
55634;DHT22;41504;53.162;6.788;2024-03-08T00:29:09;3.20;99.90
55634;DHT22;41504;53.162;6.788;2024-03-08T00:31:35;3.20;99.90
55634;DHT22;41504;53.162;6.788;2024-03-08T00:34:00;3.20;99.90
55634;DHT22;41504;53.162;6.788;2024-03-08T00:36:26;3.20;99.90
55634;DHT22;41504;53.162;6.788;2024-03-08T00:38:52;3.20;99.90
55634;DHT22;41504;53.162;6.788;2024-03-08T00:41:18;3.10;99.90
55634;DHT22;41504;53.162;6.788;2024-03-08T00:43:44;3.10;99.90
55634;DHT22;41504;53.162;6.788;2024-03-08T00:46:09;3.10;99.90
55634;DHT22;41504;53.162;6.788;2024-03-08T00:48:35;3.10;99.90
55634;DHT22;41504;53.162;6.788;2024-03-08T00:51:02;3.10;99.90
55634;DHT22;41504;53.162;6.788;2024-03-08T00:53:27;3.10;99.90
55634;DHT22;41504;53.162;6.788;2024-03-08T00:55:53;3.10;99.90
55634;DHT22;41504;53.162;6.788;2024-03-08T00:58:20;3.10;99.90
55634;DHT22;41504;53.162;6.788;2024-03-08T01:00:46;3.00;99.90
55634;DHT22;41504;53.162;6.788;2024-03-08T01:03:12;3.00;99.90
55634;DHT22;41504;53.162;6.788;2024-03-08T01:05:38;3.00;99.90
55634;DHT22;41504;53.162;6.788;2024-03-08T01:08:04;3.00;99.90
55634;DHT22;41504;53.162;6.788;2024-03-08T01:10:30;3.00;99.90
55634;DHT22;41504;53.162;6.788;2024-03-08T01:12:56;3.00;99.90
55634;DHT22;41504;53.162;6.788;2024-03-08T01:15:23;3.00;99.90
55634;DHT22;41504;53.162;6.788;2024-03-08T01:17:49;3.00;99.90
55634;DHT22;41504;53.162;6.788;2024-03-08T01:20:15;2.90;99.90
55634;DHT22;41504;53.162;6.788;2024-03-08T01:22:41;2.90;99.90
55634;DHT22;41504;53.162;6.788;2024-03-08T01:25:07;2.90;99.90
55634;DHT22;41504;53.162;6.788;2024-03-08T01:27:34;2.90;99.90
55634;DHT22;41504;53.162;6.788;2024-03-08T01:30:01;2.90;99.90
55634;DHT22;41504;53.162;6.788;2024-03-08T01:32:27;2.90;99.90
55634;DHT22;41504;53.162;6.788;2024-03-08T01:34:53;2.90;99.90
55634;DHT22;41504;53.162;6.788;2024-03-08T01:37:18;2.90;99.90
55634;DHT22;41504;53.162;6.788;2024-03-08T01:39:45;2.90;99.90
55634;DHT22;41504;53.162;6.788;2024-03-08T01:42:11;2.90;99.90
55634;DHT22;41504;53.162;6.788;2024-03-08T01:44:40;2.90;99.90
55634;DHT22;41504;53.162;6.788;2024-03-08T01:47:07;2.90;99.90
55634;DHT22;41504;53.162;6.788;2024-03-08T01:49:32;2.90;99.90
55634;DHT22;41504;53.162;6.788;2024-03-08T01:51:59;2.90;99.90
55634;DHT22;41504;53.162;6.788;2024-03-08T01:54:25;2.90;99.90
55634;DHT22;41504;53.162;6.788;2024-03-08T01:56:52;2.90;99.90
55634;DHT22;41504;53.162;6.788;2024-03-08T01:59:18;2.80;99.90
55634;DHT22;41504;53.162;6.788;2024-03-08T02:01:45;2.80;99.90
55634;DHT22;41504;53.162;6.788;2024-03-08T02:04:10;2.80;99.90
55634;DHT22;41504;53.162;6.788;2024-03-08T02:06:37;2.80;99.90
55634;DHT22;41504;53.162;6.788;2024-03-08T02:09:04;2.80;99.90
55634;DHT22;41504;53.162;6.788;2024-03-08T02:11:34;2.80;99.90
55634;DHT22;41504;53.162;6.788;2024-03-08T02:14:00;2.70;99.90
55634;DHT22;41504;53.162;6.788;2024-03-08T02:16:25;2.70;99.90
55634;DHT22;41504;53.162;6.788;2024-03-08T02:18:51;2.70;99.90
55634;DHT22;41504;53.162;6.788;2024-03-08T02:21:18;2.70;99.90
55634;DHT22;41504;53.162;6.788;2024-03-08T02:23:44;2.70;99.90
55634;DHT22;41504;53.162;6.788;2024-03-08T02:26:10;2.70;99.90
55634;DHT22;41504;53.162;6.788;2024-03-08T02:28:36;2.70;99.90
55634;DHT22;41504;53.162;6.788;2024-03-08T02:31:02;2.70;99.90
55634;DHT22;41504;53.162;6.788;2024-03-08T02:33:28;2.70;99.90
55634;DHT22;41504;53.162;6.788;2024-03-08T02:35:54;2.70;99.90
55634;DHT22;41504;53.162;6.788;2024-03-08T02:38:22;2.70;99.90
55634;DHT22;41504;53.162;6.788;2024-03-08T02:40:50;2.70;99.90
55634;DHT22;41504;53.162;6.788;2024-03-08T02:43:17;2.60;99.90
55634;DHT22;41504;53.162;6.788;2024-03-08T02:45:44;2.60;99.90
55634;DHT22;41504;53.162;6.788;2024-03-08T02:48:11;2.60;99.90
55634;DHT22;41504;53.162;6.788;2024-03-08T02:50:37;2.60;99.90
55634;DHT22;41504;53.162;6.788;2024-03-08T02:53:05;2.60;99.90
55634;DHT22;41504;53.162;6.788;2024-03-08T02:55:31;2.60;99.90
55634;DHT22;41504;53.162;6.788;2024-03-08T02:57:59;2.50;99.90
55634;DHT22;41504;53.162;6.788;2024-03-08T03:00:24;2.60;99.90
55634;DHT22;41504;53.162;6.788;2024-03-08T03:02:50;2.50;99.90
55634;DHT22;41504;53.162;6.788;2024-03-08T03:05:23;2.50;99.90
55634;DHT22;41504;53.162;6.788;2024-03-08T03:07:50;2.50;99.90
55634;DHT22;41504;53.162;6.788;2024-03-08T03:10:19;2.50;99.90
55634;DHT22;41504;53.162;6.788;2024-03-08T03:12:47;2.50;99.90
55634;DHT22;41504;53.162;6.788;2024-03-08T03:15:17;2.40;99.90
55634;DHT22;41504;53.162;6.788;2024-03-08T03:17:50;2.40;99.90
55634;DHT22;41504;53.162;6.788;2024-03-08T03:20:19;2.40;99.90
55634;DHT22;41504;53.162;6.788;2024-03-08T03:22:58;2.40;99.90
55634;DHT22;41504;53.162;6.788;2024-03-08T03:25:26;2.40;99.90
55634;DHT22;41504;53.162;6.788;2024-03-08T03:27:58;2.40;99.90
55634;DHT22;41504;53.162;6.788;2024-03-08T03:30:24;2.40;99.90
55634;DHT22;41504;53.162;6.788;2024-03-08T03:32:52;2.30;99.90
55634;DHT22;41504;53.162;6.788;2024-03-08T03:35:20;2.30;99.90
55634;DHT22;41504;53.162;6.788;2024-03-08T03:37:47;2.30;99.90
55634;DHT22;41504;53.162;6.788;2024-03-08T03:40:31;2.30;99.90
55634;DHT22;41504;53.162;6.788;2024-03-08T03:42:57;2.30;99.90
55634;DHT22;41504;53.162;6.788;2024-03-08T03:45:26;2.30;99.90
55634;DHT22;41504;53.162;6.788;2024-03-08T03:47:52;2.30;99.90
55634;DHT22;41504;53.162;6.788;2024-03-08T03:50:18;2.20;99.90
55634;DHT22;41504;53.162;6.788;2024-03-08T03:52:48;2.20;99.90
55634;DHT22;41504;53.162;6.788;2024-03-08T03:55:14;2.20;99.90
55634;DHT22;41504;53.162;6.788;2024-03-08T03:57:41;2.20;99.90
55634;DHT22;41504;53.162;6.788;2024-03-08T04:00:07;2.20;99.90
55634;DHT22;41504;53.162;6.788;2024-03-08T04:02:37;2.20;99.90
55634;DHT22;41504;53.162;6.788;2024-03-08T04:05:05;2.20;99.90
55634;DHT22;41504;53.162;6.788;2024-03-08T04:07:31;2.20;99.90
55634;DHT22;41504;53.162;6.788;2024-03-08T04:09:57;2.20;99.90
55634;DHT22;41504;53.162;6.788;2024-03-08T04:12:23;2.20;99.90
55634;DHT22;41504;53.162;6.788;2024-03-08T04:14:49;2.20;99.90
55634;DHT22;41504;53.162;6.788;2024-03-08T04:17:15;2.20;99.90
55634;DHT22;41504;53.162;6.788;2024-03-08T04:19:42;2.20;99.90
55634;DHT22;41504;53.162;6.788;2024-03-08T04:22:07;2.20;99.90
55634;DHT22;41504;53.162;6.788;2024-03-08T04:24:33;2.20;99.90
55634;DHT22;41504;53.162;6.788;2024-03-08T04:26:59;2.20;99.90
55634;DHT22;41504;53.162;6.788;2024-03-08T04:29:25;2.20;99.90
55634;DHT22;41504;53.162;6.788;2024-03-08T04:31:52;2.10;99.90
55634;DHT22;41504;53.162;6.788;2024-03-08T04:34:20;2.10;99.90
55634;DHT22;41504;53.162;6.788;2024-03-08T04:36:48;2.10;99.90
55634;DHT22;41504;53.162;6.788;2024-03-08T04:39:13;2.10;99.90
55634;DHT22;41504;53.162;6.788;2024-03-08T04:41:40;2.10;99.90
55634;DHT22;41504;53.162;6.788;2024-03-08T04:44:06;2.10;99.90
55634;DHT22;41504;53.162;6.788;2024-03-08T04:46:31;2.10;99.90
55634;DHT22;41504;53.162;6.788;2024-03-08T04:48:57;2.10;99.90
55634;DHT22;41504;53.162;6.788;2024-03-08T04:51:25;2.10;99.90
55634;DHT22;41504;53.162;6.788;2024-03-08T04:53:51;2.00;99.90
55634;DHT22;41504;53.162;6.788;2024-03-08T04:56:16;2.00;99.90
55634;DHT22;41504;53.162;6.788;2024-03-08T04:58:45;2.00;99.90
55634;DHT22;41504;53.162;6.788;2024-03-08T05:01:14;2.00;99.90
55634;DHT22;41504;53.162;6.788;2024-03-08T05:03:40;2.00;99.90
55634;DHT22;41504;53.162;6.788;2024-03-08T05:06:05;2.00;99.90
55634;DHT22;41504;53.162;6.788;2024-03-08T05:08:31;2.00;99.90
55634;DHT22;41504;53.162;6.788;2024-03-08T05:10:58;2.00;99.90
55634;DHT22;41504;53.162;6.788;2024-03-08T05:13:24;2.00;99.90
55634;DHT22;41504;53.162;6.788;2024-03-08T05:15:50;2.00;99.90
55634;DHT22;41504;53.162;6.788;2024-03-08T05:18:18;1.90;99.90
55634;DHT22;41504;53.162;6.788;2024-03-08T05:20:44;1.90;99.90
55634;DHT22;41504;53.162;6.788;2024-03-08T05:23:10;1.90;99.90
55634;DHT22;41504;53.162;6.788;2024-03-08T05:25:36;1.90;99.90
55634;DHT22;41504;53.162;6.788;2024-03-08T05:28:01;1.90;99.90
55634;DHT22;41504;53.162;6.788;2024-03-08T05:30:29;1.90;99.90
55634;DHT22;41504;53.162;6.788;2024-03-08T05:32:55;1.90;99.90
55634;DHT22;41504;53.162;6.788;2024-03-08T05:35:22;1.90;99.90
55634;DHT22;41504;53.162;6.788;2024-03-08T05:37:48;1.80;99.90
55634;DHT22;41504;53.162;6.788;2024-03-08T05:40:13;1.80;99.90
55634;DHT22;41504;53.162;6.788;2024-03-08T05:42:40;1.80;99.90
55634;DHT22;41504;53.162;6.788;2024-03-08T05:45:06;1.80;99.90
55634;DHT22;41504;53.162;6.788;2024-03-08T05:47:32;1.80;99.90
55634;DHT22;41504;53.162;6.788;2024-03-08T05:49:58;1.80;99.90
55634;DHT22;41504;53.162;6.788;2024-03-08T05:52:24;1.80;99.90
55634;DHT22;41504;53.162;6.788;2024-03-08T05:54:51;1.80;99.90
55634;DHT22;41504;53.162;6.788;2024-03-08T05:57:17;1.80;99.90
55634;DHT22;41504;53.162;6.788;2024-03-08T05:59:43;1.80;99.90
55634;DHT22;41504;53.162;6.788;2024-03-08T06:02:09;1.80;99.90
55634;DHT22;41504;53.162;6.788;2024-03-08T06:04:34;1.80;99.90
55634;DHT22;41504;53.162;6.788;2024-03-08T06:07:00;1.70;99.90
55634;DHT22;41504;53.162;6.788;2024-03-08T06:09:28;1.80;99.90
55634;DHT22;41504;53.162;6.788;2024-03-08T06:11:54;1.80;99.90
55634;DHT22;41504;53.162;6.788;2024-03-08T06:14:20;1.80;99.90
55634;DHT22;41504;53.162;6.788;2024-03-08T06:16:46;1.80;99.90
55634;DHT22;41504;53.162;6.788;2024-03-08T06:19:13;1.80;99.90
55634;DHT22;41504;53.162;6.788;2024-03-08T06:21:39;1.80;99.90
55634;DHT22;41504;53.162;6.788;2024-03-08T06:24:05;1.80;99.90
55634;DHT22;41504;53.162;6.788;2024-03-08T06:26:31;1.80;99.90
55634;DHT22;41504;53.162;6.788;2024-03-08T06:28:57;1.80;99.90
55634;DHT22;41504;53.162;6.788;2024-03-08T06:31:23;1.80;99.90
55634;DHT22;41504;53.162;6.788;2024-03-08T06:33:49;1.80;99.90
55634;DHT22;41504;53.162;6.788;2024-03-08T06:36:18;1.70;99.90
55634;DHT22;41504;53.162;6.788;2024-03-08T06:38:50;1.80;99.90
55634;DHT22;41504;53.162;6.788;2024-03-08T06:41:16;1.80;99.90
55634;DHT22;41504;53.162;6.788;2024-03-08T06:43:45;1.80;99.90
55634;DHT22;41504;53.162;6.788;2024-03-08T06:46:12;1.90;99.90
55634;DHT22;41504;53.162;6.788;2024-03-08T06:48:39;1.80;99.90
55634;DHT22;41504;53.162;6.788;2024-03-08T06:51:05;1.80;99.90
55634;DHT22;41504;53.162;6.788;2024-03-08T06:53:31;1.80;99.90
55634;DHT22;41504;53.162;6.788;2024-03-08T06:55:57;1.80;99.90
55634;DHT22;41504;53.162;6.788;2024-03-08T06:58:23;1.80;99.90
55634;DHT22;41504;53.162;6.788;2024-03-08T07:00:49;1.90;99.90
55634;DHT22;41504;53.162;6.788;2024-03-08T07:03:18;2.00;99.90
55634;DHT22;41504;53.162;6.788;2024-03-08T07:05:44;2.00;99.90
55634;DHT22;41504;53.162;6.788;2024-03-08T07:08:09;2.00;99.90
55634;DHT22;41504;53.162;6.788;2024-03-08T07:10:35;2.00;99.90
55634;DHT22;41504;53.162;6.788;2024-03-08T07:13:02;2.10;99.90
55634;DHT22;41504;53.162;6.788;2024-03-08T07:15:28;2.00;99.90
55634;DHT22;41504;53.162;6.788;2024-03-08T07:17:55;2.20;99.90
55634;DHT22;41504;53.162;6.788;2024-03-08T07:20:21;2.20;99.90
55634;DHT22;41504;53.162;6.788;2024-03-08T07:22:47;2.20;99.90
55634;DHT22;41504;53.162;6.788;2024-03-08T07:25:14;2.20;99.90
55634;DHT22;41504;53.162;6.788;2024-03-08T07:27:53;2.30;99.90
55634;DHT22;41504;53.162;6.788;2024-03-08T07:30:21;2.30;99.90
55634;DHT22;41504;53.162;6.788;2024-03-08T07:33:05;2.40;99.90
55634;DHT22;41504;53.162;6.788;2024-03-08T07:35:33;2.40;99.90
55634;DHT22;41504;53.162;6.788;2024-03-08T07:37:59;2.40;99.90
55634;DHT22;41504;53.162;6.788;2024-03-08T07:40:28;2.50;99.90
55634;DHT22;41504;53.162;6.788;2024-03-08T07:42:53;2.50;99.90
55634;DHT22;41504;53.162;6.788;2024-03-08T07:45:19;2.60;99.90
55634;DHT22;41504;53.162;6.788;2024-03-08T07:47:47;2.60;99.90
55634;DHT22;41504;53.162;6.788;2024-03-08T07:50:13;2.70;99.90
55634;DHT22;41504;53.162;6.788;2024-03-08T07:52:42;2.70;99.90
55634;DHT22;41504;53.162;6.788;2024-03-08T07:55:08;2.80;99.90
55634;DHT22;41504;53.162;6.788;2024-03-08T07:57:35;2.80;99.90
55634;DHT22;41504;53.162;6.788;2024-03-08T08:00:05;2.90;99.90
55634;DHT22;41504;53.162;6.788;2024-03-08T08:02:33;2.90;99.90
55634;DHT22;41504;53.162;6.788;2024-03-08T08:04:59;3.00;99.90
55634;DHT22;41504;53.162;6.788;2024-03-08T08:07:28;3.00;99.90
55634;DHT22;41504;53.162;6.788;2024-03-08T08:09:54;3.10;99.90
55634;DHT22;41504;53.162;6.788;2024-03-08T08:12:20;3.10;99.90
55634;DHT22;41504;53.162;6.788;2024-03-08T08:14:46;3.20;99.90
55634;DHT22;41504;53.162;6.788;2024-03-08T08:17:12;3.20;99.90
55634;DHT22;41504;53.162;6.788;2024-03-08T08:19:40;3.30;99.90
55634;DHT22;41504;53.162;6.788;2024-03-08T08:22:06;3.30;99.90
55634;DHT22;41504;53.162;6.788;2024-03-08T08:24:34;3.40;99.90
55634;DHT22;41504;53.162;6.788;2024-03-08T08:27:02;3.50;99.90
55634;DHT22;41504;53.162;6.788;2024-03-08T08:29:28;3.50;99.90
55634;DHT22;41504;53.162;6.788;2024-03-08T08:31:54;3.50;99.90
55634;DHT22;41504;53.162;6.788;2024-03-08T08:34:20;3.60;99.90
55634;DHT22;41504;53.162;6.788;2024-03-08T08:36:49;3.70;99.90
55634;DHT22;41504;53.162;6.788;2024-03-08T08:39:15;3.70;99.90
55634;DHT22;41504;53.162;6.788;2024-03-08T08:41:42;3.80;99.90
55634;DHT22;41504;53.162;6.788;2024-03-08T08:44:08;3.80;99.90
55634;DHT22;41504;53.162;6.788;2024-03-08T08:46:38;3.80;99.90
55634;DHT22;41504;53.162;6.788;2024-03-08T08:49:04;3.80;99.90
55634;DHT22;41504;53.162;6.788;2024-03-08T08:51:31;3.80;99.90
55634;DHT22;41504;53.162;6.788;2024-03-08T08:53:59;3.90;99.90
55634;DHT22;41504;53.162;6.788;2024-03-08T08:56:25;3.80;99.90
55634;DHT22;41504;53.162;6.788;2024-03-08T08:58:52;3.90;99.90
55634;DHT22;41504;53.162;6.788;2024-03-08T09:01:19;3.90;99.90
55634;DHT22;41504;53.162;6.788;2024-03-08T09:03:45;3.90;99.90
55634;DHT22;41504;53.162;6.788;2024-03-08T09:06:15;4.00;99.90
55634;DHT22;41504;53.162;6.788;2024-03-08T09:08:42;4.00;99.90
55634;DHT22;41504;53.162;6.788;2024-03-08T09:11:09;4.00;99.90
55634;DHT22;41504;53.162;6.788;2024-03-08T09:13:35;4.00;99.90
55634;DHT22;41504;53.162;6.788;2024-03-08T09:16:02;4.10;99.90
55634;DHT22;41504;53.162;6.788;2024-03-08T09:18:30;4.00;99.90
55634;DHT22;41504;53.162;6.788;2024-03-08T09:20:58;4.10;99.90
55634;DHT22;41504;53.162;6.788;2024-03-08T09:23:23;4.10;99.90
55634;DHT22;41504;53.162;6.788;2024-03-08T09:25:51;4.20;99.90
55634;DHT22;41504;53.162;6.788;2024-03-08T09:28:17;4.10;99.90
55634;DHT22;41504;53.162;6.788;2024-03-08T09:30:43;4.20;99.90
55634;DHT22;41504;53.162;6.788;2024-03-08T09:33:10;4.20;99.90
55634;DHT22;41504;53.162;6.788;2024-03-08T09:35:37;4.30;99.90
55634;DHT22;41504;53.162;6.788;2024-03-08T09:38:02;4.30;99.90
55634;DHT22;41504;53.162;6.788;2024-03-08T09:40:31;4.40;99.90
55634;DHT22;41504;53.162;6.788;2024-03-08T09:42:58;4.40;99.90
55634;DHT22;41504;53.162;6.788;2024-03-08T09:45:24;4.40;99.90
55634;DHT22;41504;53.162;6.788;2024-03-08T09:47:50;4.50;99.90
55634;DHT22;41504;53.162;6.788;2024-03-08T09:50:16;4.50;99.90
55634;DHT22;41504;53.162;6.788;2024-03-08T09:52:44;4.50;99.90
55634;DHT22;41504;53.162;6.788;2024-03-08T09:55:12;4.50;99.90
55634;DHT22;41504;53.162;6.788;2024-03-08T09:57:38;4.60;99.90
55634;DHT22;41504;53.162;6.788;2024-03-08T10:00:05;4.60;99.90
55634;DHT22;41504;53.162;6.788;2024-03-08T10:02:47;4.70;99.90
55634;DHT22;41504;53.162;6.788;2024-03-08T10:05:14;4.70;99.90
55634;DHT22;41504;53.162;6.788;2024-03-08T10:07:40;4.80;99.90
55634;DHT22;41504;53.162;6.788;2024-03-08T10:10:06;4.80;99.90
55634;DHT22;41504;53.162;6.788;2024-03-08T10:12:34;4.80;99.90
55634;DHT22;41504;53.162;6.788;2024-03-08T10:15:00;4.90;99.90
55634;DHT22;41504;53.162;6.788;2024-03-08T10:17:26;5.00;99.90
55634;DHT22;41504;53.162;6.788;2024-03-08T10:19:57;5.00;99.90
55634;DHT22;41504;53.162;6.788;2024-03-08T10:22:25;5.10;99.90
55634;DHT22;41504;53.162;6.788;2024-03-08T10:24:51;5.10;99.90
55634;DHT22;41504;53.162;6.788;2024-03-08T10:27:17;5.20;99.90
55634;DHT22;41504;53.162;6.788;2024-03-08T10:29:47;5.20;99.90
55634;DHT22;41504;53.162;6.788;2024-03-08T10:32:13;5.30;99.90
55634;DHT22;41504;53.162;6.788;2024-03-08T10:34:39;5.40;99.90
55634;DHT22;41504;53.162;6.788;2024-03-08T10:37:07;5.40;99.90
55634;DHT22;41504;53.162;6.788;2024-03-08T10:39:39;5.50;99.90
55634;DHT22;41504;53.162;6.788;2024-03-08T10:42:12;5.60;99.90
55634;DHT22;41504;53.162;6.788;2024-03-08T10:44:58;5.60;99.90
55634;DHT22;41504;53.162;6.788;2024-03-08T10:47:30;5.70;99.90
55634;DHT22;41504;53.162;6.788;2024-03-08T10:50:11;5.80;99.90
55634;DHT22;41504;53.162;6.788;2024-03-08T10:52:42;5.90;99.90
55634;DHT22;41504;53.162;6.788;2024-03-08T10:55:10;5.90;99.90
55634;DHT22;41504;53.162;6.788;2024-03-08T10:57:38;6.00;99.90
55634;DHT22;41504;53.162;6.788;2024-03-08T11:00:06;6.00;99.90
55634;DHT22;41504;53.162;6.788;2024-03-08T11:02:35;6.10;99.90
55634;DHT22;41504;53.162;6.788;2024-03-08T11:05:03;6.20;99.90
55634;DHT22;41504;53.162;6.788;2024-03-08T11:07:34;6.30;99.90
55634;DHT22;41504;53.162;6.788;2024-03-08T11:10:03;6.30;99.90
55634;DHT22;41504;53.162;6.788;2024-03-08T11:12:39;6.40;99.90
55634;DHT22;41504;53.162;6.788;2024-03-08T11:15:12;6.40;99.90
55634;DHT22;41504;53.162;6.788;2024-03-08T11:17:48;6.50;99.90
55634;DHT22;41504;53.162;6.788;2024-03-08T11:20:18;6.50;99.90
55634;DHT22;41504;53.162;6.788;2024-03-08T11:22:52;6.60;99.90
55634;DHT22;41504;53.162;6.788;2024-03-08T11:25:41;6.70;99.90
55634;DHT22;41504;53.162;6.788;2024-03-08T11:33:30;6.80;99.90
55634;DHT22;41504;53.162;6.788;2024-03-08T11:36:11;6.90;99.90
55634;DHT22;41504;53.162;6.788;2024-03-08T11:38:45;6.90;99.90
55634;DHT22;41504;53.162;6.788;2024-03-08T11:41:15;7.00;99.90
55634;DHT22;41504;53.162;6.788;2024-03-08T11:43:41;7.10;99.90
55634;DHT22;41504;53.162;6.788;2024-03-08T11:46:17;7.10;99.90
55634;DHT22;41504;53.162;6.788;2024-03-08T11:48:46;7.20;99.90
55634;DHT22;41504;53.162;6.788;2024-03-08T11:51:14;7.30;99.90
55634;DHT22;41504;53.162;6.788;2024-03-08T11:53:40;7.30;99.90
55634;DHT22;41504;53.162;6.788;2024-03-08T11:56:13;7.40;99.90
55634;DHT22;41504;53.162;6.788;2024-03-08T11:58:39;7.40;99.90
55634;DHT22;41504;53.162;6.788;2024-03-08T12:01:11;7.50;99.90
55634;DHT22;41504;53.162;6.788;2024-03-08T12:03:41;7.60;99.90
55634;DHT22;41504;53.162;6.788;2024-03-08T12:06:10;7.70;99.90
55634;DHT22;41504;53.162;6.788;2024-03-08T12:08:36;7.70;99.90
55634;DHT22;41504;53.162;6.788;2024-03-08T12:11:05;7.80;99.90
55634;DHT22;41504;53.162;6.788;2024-03-08T12:13:33;7.80;99.90
55634;DHT22;41504;53.162;6.788;2024-03-08T12:16:00;7.90;99.90
55634;DHT22;41504;53.162;6.788;2024-03-08T12:18:33;7.90;99.90
55634;DHT22;41504;53.162;6.788;2024-03-08T12:21:07;8.00;99.90
55634;DHT22;41504;53.162;6.788;2024-03-08T12:23:37;8.10;99.90
55634;DHT22;41504;53.162;6.788;2024-03-08T12:26:14;8.10;99.90
55634;DHT22;41504;53.162;6.788;2024-03-08T12:28:42;8.20;99.90
55634;DHT22;41504;53.162;6.788;2024-03-08T12:31:11;8.20;99.90
55634;DHT22;41504;53.162;6.788;2024-03-08T12:33:50;8.30;99.90
55634;DHT22;41504;53.162;6.788;2024-03-08T12:36:17;8.40;99.90
55634;DHT22;41504;53.162;6.788;2024-03-08T12:38:47;8.50;99.90
55634;DHT22;41504;53.162;6.788;2024-03-08T12:41:19;8.60;99.90
55634;DHT22;41504;53.162;6.788;2024-03-08T12:43:46;8.60;99.90
55634;DHT22;41504;53.162;6.788;2024-03-08T12:46:21;8.70;99.90
55634;DHT22;41504;53.162;6.788;2024-03-08T12:48:55;8.80;99.90
55634;DHT22;41504;53.162;6.788;2024-03-08T12:51:21;8.80;99.90
55634;DHT22;41504;53.162;6.788;2024-03-08T12:53:47;8.90;99.80
55634;DHT22;41504;53.162;6.788;2024-03-08T12:56:36;9.00;99.90
55634;DHT22;41504;53.162;6.788;2024-03-08T12:59:04;9.00;98.70
55634;DHT22;41504;53.162;6.788;2024-03-08T13:01:31;9.10;99.20
55634;DHT22;41504;53.162;6.788;2024-03-08T13:04:00;9.10;99.00
55634;DHT22;41504;53.162;6.788;2024-03-08T13:06:27;9.20;98.70
55634;DHT22;41504;53.162;6.788;2024-03-08T13:08:54;9.20;97.80
55634;DHT22;41504;53.162;6.788;2024-03-08T13:11:21;9.20;97.80
55634;DHT22;41504;53.162;6.788;2024-03-08T13:13:49;9.30;97.90
55634;DHT22;41504;53.162;6.788;2024-03-08T13:16:15;9.30;98.10
55634;DHT22;41504;53.162;6.788;2024-03-08T13:18:42;9.40;97.90
55634;DHT22;41504;53.162;6.788;2024-03-08T13:21:12;9.40;97.50
55634;DHT22;41504;53.162;6.788;2024-03-08T13:23:41;9.50;97.20
55634;DHT22;41504;53.162;6.788;2024-03-08T13:26:12;9.50;96.80
55634;DHT22;41504;53.162;6.788;2024-03-08T13:28:47;9.50;96.50
55634;DHT22;41504;53.162;6.788;2024-03-08T13:31:22;9.60;96.30
55634;DHT22;41504;53.162;6.788;2024-03-08T13:33:48;9.60;96.10
55634;DHT22;41504;53.162;6.788;2024-03-08T13:36:15;9.60;96.10
55634;DHT22;41504;53.162;6.788;2024-03-08T13:38:45;9.70;95.00
55634;DHT22;41504;53.162;6.788;2024-03-08T13:41:12;9.70;95.70
55634;DHT22;41504;53.162;6.788;2024-03-08T13:43:44;9.70;95.30
55634;DHT22;41504;53.162;6.788;2024-03-08T13:46:11;9.80;95.30
55634;DHT22;41504;53.162;6.788;2024-03-08T13:48:37;9.80;95.10
55634;DHT22;41504;53.162;6.788;2024-03-08T13:51:07;9.90;95.30
55634;DHT22;41504;53.162;6.788;2024-03-08T13:53:33;10.00;94.50
55634;DHT22;41504;53.162;6.788;2024-03-08T13:56:03;10.00;93.70
55634;DHT22;41504;53.162;6.788;2024-03-08T13:58:29;10.10;93.30
55634;DHT22;41504;53.162;6.788;2024-03-08T14:00:55;10.00;93.40
55634;DHT22;41504;53.162;6.788;2024-03-08T14:03:21;10.10;93.50
55634;DHT22;41504;53.162;6.788;2024-03-08T14:05:47;10.20;93.70
55634;DHT22;41504;53.162;6.788;2024-03-08T14:08:13;10.30;92.80
55634;DHT22;41504;53.162;6.788;2024-03-08T14:10:39;10.30;92.70
55634;DHT22;41504;53.162;6.788;2024-03-08T14:13:05;10.30;92.70
55634;DHT22;41504;53.162;6.788;2024-03-08T14:15:32;10.40;92.60
55634;DHT22;41504;53.162;6.788;2024-03-08T14:17:59;10.50;92.00
55634;DHT22;41504;53.162;6.788;2024-03-08T14:20:25;10.50;91.70
55634;DHT22;41504;53.162;6.788;2024-03-08T14:22:54;10.50;90.90
55634;DHT22;41504;53.162;6.788;2024-03-08T14:25:21;10.50;90.60
55634;DHT22;41504;53.162;6.788;2024-03-08T14:27:49;10.40;90.60
55634;DHT22;41504;53.162;6.788;2024-03-08T14:30:15;10.50;89.20
55634;DHT22;41504;53.162;6.788;2024-03-08T14:32:58;10.50;90.50
55634;DHT22;41504;53.162;6.788;2024-03-08T14:35:27;10.50;91.30
55634;DHT22;41504;53.162;6.788;2024-03-08T14:37:53;10.50;90.70
55634;DHT22;41504;53.162;6.788;2024-03-08T14:40:18;10.50;90.10
55634;DHT22;41504;53.162;6.788;2024-03-08T14:42:48;10.50;86.70
55634;DHT22;41504;53.162;6.788;2024-03-08T14:45:17;10.40;88.20
55634;DHT22;41504;53.162;6.788;2024-03-08T14:47:49;10.30;88.10
55634;DHT22;41504;53.162;6.788;2024-03-08T14:50:19;10.30;88.20
55634;DHT22;41504;53.162;6.788;2024-03-08T14:52:46;10.30;88.30
55634;DHT22;41504;53.162;6.788;2024-03-08T14:55:17;10.40;88.20
55634;DHT22;41504;53.162;6.788;2024-03-08T14:57:45;10.40;87.50
55634;DHT22;41504;53.162;6.788;2024-03-08T15:00:12;10.40;85.40
55634;DHT22;41504;53.162;6.788;2024-03-08T15:02:59;10.30;85.00
55634;DHT22;41504;53.162;6.788;2024-03-08T15:05:25;10.30;87.20
55634;DHT22;41504;53.162;6.788;2024-03-08T15:07:58;10.30;84.30
55634;DHT22;41504;53.162;6.788;2024-03-08T15:10:26;10.30;85.30
55634;DHT22;41504;53.162;6.788;2024-03-08T15:12:54;10.30;85.80
55634;DHT22;41504;53.162;6.788;2024-03-08T15:15:24;10.30;86.20
55634;DHT22;41504;53.162;6.788;2024-03-08T15:17:50;10.30;85.10
55634;DHT22;41504;53.162;6.788;2024-03-08T15:20:16;10.30;86.70
55634;DHT22;41504;53.162;6.788;2024-03-08T15:22:50;10.30;87.60
55634;DHT22;41504;53.162;6.788;2024-03-08T15:25:16;10.30;85.00
55634;DHT22;41504;53.162;6.788;2024-03-08T15:27:49;10.30;84.70
55634;DHT22;41504;53.162;6.788;2024-03-08T15:30:15;10.30;86.70
55634;DHT22;41504;53.162;6.788;2024-03-08T15:32:45;10.30;85.40
55634;DHT22;41504;53.162;6.788;2024-03-08T15:35:16;10.30;86.70
55634;DHT22;41504;53.162;6.788;2024-03-08T15:37:45;10.20;86.00
55634;DHT22;41504;53.162;6.788;2024-03-08T15:40:12;10.20;85.60
55634;DHT22;41504;53.162;6.788;2024-03-08T15:42:48;10.10;84.90
55634;DHT22;41504;53.162;6.788;2024-03-08T15:45:16;10.10;83.90
55634;DHT22;41504;53.162;6.788;2024-03-08T15:47:42;10.00;85.80
55634;DHT22;41504;53.162;6.788;2024-03-08T15:50:10;9.90;86.90
55634;DHT22;41504;53.162;6.788;2024-03-08T15:52:44;9.80;87.90
55634;DHT22;41504;53.162;6.788;2024-03-08T15:55:15;9.80;87.50